sensor_id;sensor_type;location;lat;lon;timestamp;pressure;altitude;pressure_sealevel;temperature
42119;BMP280;27783;42.782;23.274;2022-09-17T00:00:22;94676.88;;;20.41
42119;BMP280;27783;42.782;23.274;2022-09-17T00:02:51;94676.59;;;20.39
42119;BMP280;27783;42.782;23.274;2022-09-17T00:05:21;94668.09;;;20.40
42119;BMP280;27783;42.782;23.274;2022-09-17T00:07:48;94672.97;;;20.42
42119;BMP280;27783;42.782;23.274;2022-09-17T00:10:14;94666.88;;;20.41
42119;BMP280;27783;42.782;23.274;2022-09-17T00:12:40;94658.13;;;20.41
42119;BMP280;27783;42.782;23.274;2022-09-17T00:15:06;94659.59;;;20.42
42119;BMP280;27783;42.782;23.274;2022-09-17T00:17:32;94660.81;;;20.41
42119;BMP280;27783;42.782;23.274;2022-09-17T00:19:58;94670.03;;;20.40
42119;BMP280;27783;42.782;23.274;2022-09-17T00:22:38;94666.34;;;20.37
42119;BMP280;27783;42.782;23.274;2022-09-17T00:25:05;94659.59;;;20.42
42119;BMP280;27783;42.782;23.274;2022-09-17T00:27:32;94666.63;;;20.39
42119;BMP280;27783;42.782;23.274;2022-09-17T00:29:59;94662.00;;;20.40
42119;BMP280;27783;42.782;23.274;2022-09-17T00:32:25;94666.16;;;20.41
42119;BMP280;27783;42.782;23.274;2022-09-17T00:34:52;94662.00;;;20.40
42119;BMP280;27783;42.782;23.274;2022-09-17T00:37:18;94665.88;;;20.39
42119;BMP280;27783;42.782;23.274;2022-09-17T00:39:45;94667.34;;;20.40
42119;BMP280;27783;42.782;23.274;2022-09-17T00:42:13;94663.00;;;20.42
42119;BMP280;27783;42.782;23.274;2022-09-17T00:44:49;94673.47;;;20.40
42119;BMP280;27783;42.782;23.274;2022-09-17T00:47:30;94670.47;;;20.38
42119;BMP280;27783;42.782;23.274;2022-09-17T00:50:03;94680.44;;;20.38
42119;BMP280;27783;42.782;23.274;2022-09-17T00:52:34;94667.53;;;20.37
42119;BMP280;27783;42.782;23.274;2022-09-17T00:55:06;94672.16;;;20.36
42119;BMP280;27783;42.782;23.274;2022-09-17T00:57:38;94683.03;;;20.33
42119;BMP280;27783;42.782;23.274;2022-09-17T01:00:05;94686.00;;;20.35
42119;BMP280;27783;42.782;23.274;2022-09-17T01:02:35;94676.03;;;20.35
42119;BMP280;27783;42.782;23.274;2022-09-17T01:05:00;94672.91;;;20.37
42119;BMP280;27783;42.782;23.274;2022-09-17T01:22:18;94638.56;;;20.35
42119;BMP280;27783;42.782;23.274;2022-09-17T01:36:09;94640.03;;;20.36
42119;BMP280;27783;42.782;23.274;2022-09-17T01:38:48;94637.81;;;20.35
42119;BMP280;27783;42.782;23.274;2022-09-17T01:41:35;94660.72;;;20.36
42119;BMP280;27783;42.782;23.274;2022-09-17T01:47:14;94661.81;;;20.29
42119;BMP280;27783;42.782;23.274;2022-09-17T01:49:42;94687.09;;;20.28
42119;BMP280;27783;42.782;23.274;2022-09-17T01:52:14;94662.56;;;20.30
42119;BMP280;27783;42.782;23.274;2022-09-17T01:54:46;94648.16;;;20.27
42119;BMP280;27783;42.782;23.274;2022-09-17T01:57:24;94645.75;;;20.29
42119;BMP280;27783;42.782;23.274;2022-09-17T01:59:58;94628.22;;;20.28
42119;BMP280;27783;42.782;23.274;2022-09-17T02:02:43;94601.16;;;20.26
42119;BMP280;27783;42.782;23.274;2022-09-17T02:05:22;94587.03;;;20.26
42119;BMP280;27783;42.782;23.274;2022-09-17T02:08:07;94575.88;;;20.27
42119;BMP280;27783;42.782;23.274;2022-09-17T02:10:38;94573.22;;;20.27
42119;BMP280;27783;42.782;23.274;2022-09-17T02:13:28;94579.31;;;20.28
42119;BMP280;27783;42.782;23.274;2022-09-17T02:15:59;94585.84;;;20.27
42119;BMP280;27783;42.782;23.274;2022-09-17T02:21:21;94548.38;;;20.27
42119;BMP280;27783;42.782;23.274;2022-09-17T02:24:38;94559.53;;;20.25
42119;BMP280;27783;42.782;23.274;2022-09-17T02:26:42;94598.69;;;20.23
42119;BMP280;27783;42.782;23.274;2022-09-17T02:29:36;94632.28;;;20.24
42119;BMP280;27783;42.782;23.274;2022-09-17T02:32:02;94587.53;;;20.24
42119;BMP280;27783;42.782;23.274;2022-09-17T02:34:28;94572.09;;;20.19
42119;BMP280;27783;42.782;23.274;2022-09-17T02:36:55;94564.56;;;20.18
42119;BMP280;27783;42.782;23.274;2022-09-17T02:39:22;94559.66;;;20.17
42119;BMP280;27783;42.782;23.274;2022-09-17T02:42:35;94564.06;;;20.19
42119;BMP280;27783;42.782;23.274;2022-09-17T03:01:55;94527.13;;;20.04
42119;BMP280;27783;42.782;23.274;2022-09-17T03:04:24;94510.13;;;20.07
42119;BMP280;27783;42.782;23.274;2022-09-17T03:06:51;94513.81;;;20.09
42119;BMP280;27783;42.782;23.274;2022-09-17T03:09:19;94521.09;;;20.09
42119;BMP280;27783;42.782;23.274;2022-09-17T03:11:45;94534.75;;;20.11
42119;BMP280;27783;42.782;23.274;2022-09-17T03:14:11;94521.19;;;20.14
42119;BMP280;27783;42.782;23.274;2022-09-17T03:16:36;94507.81;;;20.14
42119;BMP280;27783;42.782;23.274;2022-09-17T03:19:02;94508.28;;;20.13
42119;BMP280;27783;42.782;23.274;2022-09-17T03:21:28;94497.31;;;20.11
42119;BMP280;27783;42.782;23.274;2022-09-17T03:23:54;94488.06;;;20.12
42119;BMP280;27783;42.782;23.274;2022-09-17T03:26:20;94470.56;;;20.11
42119;BMP280;27783;42.782;23.274;2022-09-17T03:28:45;94473.22;;;20.11
42119;BMP280;27783;42.782;23.274;2022-09-17T03:31:13;94477.66;;;20.14
42119;BMP280;27783;42.782;23.274;2022-09-17T03:33:40;94494.63;;;20.11
42119;BMP280;27783;42.782;23.274;2022-09-17T03:36:06;94475.63;;;20.09
42119;BMP280;27783;42.782;23.274;2022-09-17T03:38:31;94469.06;;;20.10
42119;BMP280;27783;42.782;23.274;2022-09-17T03:41:05;94461.03;;;20.10
42119;BMP280;27783;42.782;23.274;2022-09-17T03:43:34;94465.94;;;20.11
42119;BMP280;27783;42.782;23.274;2022-09-17T03:46:01;94467.41;;;20.12
42119;BMP280;27783;42.782;23.274;2022-09-17T03:48:27;94470.81;;;20.13
42119;BMP280;27783;42.782;23.274;2022-09-17T03:50:57;94480.31;;;20.14
42119;BMP280;27783;42.782;23.274;2022-09-17T03:53:24;94491.28;;;20.16
42119;BMP280;27783;42.782;23.274;2022-09-17T03:55:49;94499.31;;;20.16
42119;BMP280;27783;42.782;23.274;2022-09-17T03:58:15;94503.09;;;20.09
42119;BMP280;27783;42.782;23.274;2022-09-17T04:00:40;94512.53;;;20.05
42119;BMP280;27783;42.782;23.274;2022-09-17T04:03:08;94517.97;;;20.10
42119;BMP280;27783;42.782;23.274;2022-09-17T04:05:34;94519.91;;;20.10
42119;BMP280;27783;42.782;23.274;2022-09-17T04:08:00;94524.81;;;20.11
42119;BMP280;27783;42.782;23.274;2022-09-17T04:10:26;94529.69;;;20.13
42119;BMP280;27783;42.782;23.274;2022-09-17T04:12:51;94539.19;;;20.14
42119;BMP280;27783;42.782;23.274;2022-09-17T04:15:17;94541.13;;;20.13
42119;BMP280;27783;42.782;23.274;2022-09-17T04:17:43;94550.34;;;20.12
42119;BMP280;27783;42.782;23.274;2022-09-17T04:20:08;94562.25;;;20.11
42119;BMP280;27783;42.782;23.274;2022-09-17T04:22:36;94572.47;;;20.13
42119;BMP280;27783;42.782;23.274;2022-09-17T04:25:01;94585.41;;;20.14
42119;BMP280;27783;42.782;23.274;2022-09-17T04:27:28;94590.09;;;20.19
42119;BMP280;27783;42.782;23.274;2022-09-17T04:29:54;94601.81;;;20.21
42119;BMP280;27783;42.782;23.274;2022-09-17T04:32:19;94612.31;;;20.25
42119;BMP280;27783;42.782;23.274;2022-09-17T04:34:45;94608.94;;;20.24
42119;BMP280;27783;42.782;23.274;2022-09-17T04:37:12;94625.25;;;20.26
42119;BMP280;27783;42.782;23.274;2022-09-17T04:39:38;94637.81;;;20.35
42119;BMP280;27783;42.782;23.274;2022-09-17T04:42:05;94646.31;;;20.33
42119;BMP280;27783;42.782;23.274;2022-09-17T04:44:30;94652.59;;;20.44
42119;BMP280;27783;42.782;23.274;2022-09-17T04:46:55;94643.53;;;20.42
42119;BMP280;27783;42.782;23.274;2022-09-17T04:49:22;94638.94;;;20.28
42119;BMP280;27783;42.782;23.274;2022-09-17T04:51:47;94644.84;;;20.32
42119;BMP280;27783;42.782;23.274;2022-09-17T04:54:12;94651.84;;;20.30
42119;BMP280;27783;42.782;23.274;2022-09-17T04:56:40;94670.16;;;20.31
42119;BMP280;27783;42.782;23.274;2022-09-17T04:59:06;94681.56;;;20.32
42119;BMP280;27783;42.782;23.274;2022-09-17T05:01:34;94687.94;;;20.34
42119;BMP280;27783;42.782;23.274;2022-09-17T05:04:00;94671.91;;;20.34
42119;BMP280;27783;42.782;23.274;2022-09-17T05:06:27;94664.13;;;20.50
42119;BMP280;27783;42.782;23.274;2022-09-17T05:08:53;94649.81;;;20.53
42119;BMP280;27783;42.782;23.274;2022-09-17T05:11:19;94634.47;;;20.53
42119;BMP280;27783;42.782;23.274;2022-09-17T05:13:44;94626.44;;;20.53
42119;BMP280;27783;42.782;23.274;2022-09-17T05:16:10;94632.88;;;20.61
42119;BMP280;27783;42.782;23.274;2022-09-17T05:18:36;94649.50;;;20.65
42119;BMP280;27783;42.782;23.274;2022-09-17T05:21:02;94647.38;;;20.69
42119;BMP280;27783;42.782;23.274;2022-09-17T05:23:27;94644.44;;;20.67
42119;BMP280;27783;42.782;23.274;2022-09-17T05:25:57;94642.78;;;20.55
42119;BMP280;27783;42.782;23.274;2022-09-17T05:28:25;94638.22;;;20.61
42119;BMP280;27783;42.782;23.274;2022-09-17T05:30:51;94632.25;;;20.66
42119;BMP280;27783;42.782;23.274;2022-09-17T05:33:17;94632.25;;;20.66
42119;BMP280;27783;42.782;23.274;2022-09-17T05:35:46;94633.56;;;20.56
42119;BMP280;27783;42.782;23.274;2022-09-17T05:38:12;94642.31;;;20.57
42119;BMP280;27783;42.782;23.274;2022-09-17T05:40:38;94637.03;;;20.62
42119;BMP280;27783;42.782;23.274;2022-09-17T05:43:05;94642.41;;;20.62
42119;BMP280;27783;42.782;23.274;2022-09-17T05:45:32;94635.28;;;20.59
42119;BMP280;27783;42.782;23.274;2022-09-17T05:48:00;94625.03;;;20.58
42119;BMP280;27783;42.782;23.274;2022-09-17T05:50:27;94628.19;;;20.56
42119;BMP280;27783;42.782;23.274;2022-09-17T05:52:53;94629.69;;;20.57
42119;BMP280;27783;42.782;23.274;2022-09-17T05:55:20;94635.56;;;20.61
42119;BMP280;27783;42.782;23.274;2022-09-17T05:57:48;94634.63;;;20.64
42119;BMP280;27783;42.782;23.274;2022-09-17T06:00:16;94630.00;;;20.65
42119;BMP280;27783;42.782;23.274;2022-09-17T06:02:42;94637.31;;;20.64
42119;BMP280;27783;42.782;23.274;2022-09-17T06:05:13;94654.09;;;20.65
42119;BMP280;27783;42.782;23.274;2022-09-17T06:07:38;94679.25;;;20.67
42119;BMP280;27783;42.782;23.274;2022-09-17T06:10:05;94682.56;;;20.62
42119;BMP280;27783;42.782;23.274;2022-09-17T06:12:32;94688.19;;;20.64
42119;BMP280;27783;42.782;23.274;2022-09-17T06:15:05;94671.41;;;20.64
42119;BMP280;27783;42.782;23.274;2022-09-17T06:17:34;94684.13;;;20.69
42119;BMP280;27783;42.782;23.274;2022-09-17T06:20:02;94702.03;;;20.77
42119;BMP280;27783;42.782;23.274;2022-09-17T06:22:32;94706.72;;;20.82
42119;BMP280;27783;42.782;23.274;2022-09-17T06:24:57;94700.19;;;20.83
42119;BMP280;27783;42.782;23.274;2022-09-17T06:27:35;94678.25;;;20.84
42119;BMP280;27783;42.782;23.274;2022-09-17T06:30:00;94688.53;;;20.86
42119;BMP280;27783;42.782;23.274;2022-09-17T06:32:27;94694.69;;;20.91
42119;BMP280;27783;42.782;23.274;2022-09-17T06:34:54;94691.81;;;20.95
42119;BMP280;27783;42.782;23.274;2022-09-17T06:37:30;94687.59;;;20.88
42119;BMP280;27783;42.782;23.274;2022-09-17T06:39:57;94698.50;;;20.85
42119;BMP280;27783;42.782;23.274;2022-09-17T06:42:25;94710.88;;;20.83
42119;BMP280;27783;42.782;23.274;2022-09-17T06:44:56;94698.69;;;20.82
42119;BMP280;27783;42.782;23.274;2022-09-17T06:47:24;94662.38;;;20.81
42119;BMP280;27783;42.782;23.274;2022-09-17T06:49:49;94677.00;;;20.80
42119;BMP280;27783;42.782;23.274;2022-09-17T06:52:16;94671.91;;;20.82
42119;BMP280;27783;42.782;23.274;2022-09-17T06:54:41;94660.44;;;20.81
42119;BMP280;27783;42.782;23.274;2022-09-17T06:57:07;94660.53;;;20.87
42119;BMP280;27783;42.782;23.274;2022-09-17T06:59:32;94662.09;;;20.93
42119;BMP280;27783;42.782;23.274;2022-09-17T07:01:57;94661.09;;;20.90
42119;BMP280;27783;42.782;23.274;2022-09-17T07:04:25;94640.66;;;20.93
42119;BMP280;27783;42.782;23.274;2022-09-17T07:06:50;94639.38;;;20.88
42119;BMP280;27783;42.782;23.274;2022-09-17T07:09:16;94619.69;;;20.91
42119;BMP280;27783;42.782;23.274;2022-09-17T07:11:42;94601.22;;;20.93
42119;BMP280;27783;42.782;23.274;2022-09-17T07:14:09;94598.22;;;21.05
42119;BMP280;27783;42.782;23.274;2022-09-17T07:16:35;94599.72;;;21.26
42119;BMP280;27783;42.782;23.274;2022-09-17T07:19:03;94600.69;;;21.48
42119;BMP280;27783;42.782;23.274;2022-09-17T07:21:28;94595.16;;;21.56
42119;BMP280;27783;42.782;23.274;2022-09-17T07:23:54;94580.44;;;21.66
42119;BMP280;27783;42.782;23.274;2022-09-17T07:26:19;94589.88;;;21.81
42119;BMP280;27783;42.782;23.274;2022-09-17T07:28:45;94600.22;;;21.93
42119;BMP280;27783;42.782;23.274;2022-09-17T07:31:12;94607.91;;;22.05
42119;BMP280;27783;42.782;23.274;2022-09-17T07:33:38;94602.84;;;22.13
42119;BMP280;27783;42.782;23.274;2022-09-17T07:36:09;94606.31;;;22.19
42119;BMP280;27783;42.782;23.274;2022-09-17T07:38:35;94610.97;;;22.23
42119;BMP280;27783;42.782;23.274;2022-09-17T07:41:10;94608.13;;;22.32
42119;BMP280;27783;42.782;23.274;2022-09-17T07:43:41;94608.50;;;22.45
42119;BMP280;27783;42.782;23.274;2022-09-17T07:46:16;94595.16;;;22.55
42119;BMP280;27783;42.782;23.274;2022-09-17T07:48:58;94592.75;;;22.63
42119;BMP280;27783;42.782;23.274;2022-09-17T07:51:25;94603.56;;;22.68
42119;BMP280;27783;42.782;23.274;2022-09-17T07:53:53;94605.00;;;22.69
42119;BMP280;27783;42.782;23.274;2022-09-17T07:56:21;94607.47;;;22.72
42119;BMP280;27783;42.782;23.274;2022-09-17T07:58:47;94590.91;;;22.79
42119;BMP280;27783;42.782;23.274;2022-09-17T08:01:14;94582.41;;;22.91
42119;BMP280;27783;42.782;23.274;2022-09-17T08:03:41;94583.00;;;23.11
42119;BMP280;27783;42.782;23.274;2022-09-17T08:06:13;94574.06;;;23.20
42119;BMP280;27783;42.782;23.274;2022-09-17T08:08:39;94565.53;;;23.26
42119;BMP280;27783;42.782;23.274;2022-09-17T08:11:06;94561.63;;;23.33
42119;BMP280;27783;42.782;23.274;2022-09-17T08:13:32;94557.22;;;23.35
42119;BMP280;27783;42.782;23.274;2022-09-17T08:16:02;94564.84;;;23.42
42119;BMP280;27783;42.782;23.274;2022-09-17T08:18:28;94559.72;;;23.49
42119;BMP280;27783;42.782;23.274;2022-09-17T08:21:02;94558.00;;;23.52
42119;BMP280;27783;42.782;23.274;2022-09-17T08:23:29;94554.34;;;23.55
42119;BMP280;27783;42.782;23.274;2022-09-17T08:25:56;94545.81;;;23.56
42119;BMP280;27783;42.782;23.274;2022-09-17T08:28:24;94543.34;;;23.58
42119;BMP280;27783;42.782;23.274;2022-09-17T08:30:50;94545.06;;;23.61
42119;BMP280;27783;42.782;23.274;2022-09-17T08:33:16;94559.53;;;23.63
42119;BMP280;27783;42.782;23.274;2022-09-17T08:35:42;94549.75;;;23.60
42119;BMP280;27783;42.782;23.274;2022-09-17T08:38:15;94553.88;;;23.61
42119;BMP280;27783;42.782;23.274;2022-09-17T08:41:33;94557.81;;;23.71
42119;BMP280;27783;42.782;23.274;2022-09-17T08:43:44;94555.63;;;23.75
42119;BMP280;27783;42.782;23.274;2022-09-17T08:46:13;94550.31;;;24.12
42119;BMP280;27783;42.782;23.274;2022-09-17T08:54:09;94538.31;;;24.45
42119;BMP280;27783;42.782;23.274;2022-09-17T08:56:41;94545.66;;;24.45
42119;BMP280;27783;42.782;23.274;2022-09-17T08:59:33;94555.69;;;24.50
42119;BMP280;27783;42.782;23.274;2022-09-17T09:02:25;94552.97;;;24.50
42119;BMP280;27783;42.782;23.274;2022-09-17T09:05:12;94557.91;;;24.62
42119;BMP280;27783;42.782;23.274;2022-09-17T09:07:50;94553.00;;;24.60
42119;BMP280;27783;42.782;23.274;2022-09-17T09:10:25;94557.13;;;24.88
42119;BMP280;27783;42.782;23.274;2022-09-17T09:12:52;94542.88;;;24.93
42119;BMP280;27783;42.782;23.274;2022-09-17T09:18:18;94559.25;;;25.11
42119;BMP280;27783;42.782;23.274;2022-09-17T09:21:09;94571.09;;;24.92
42119;BMP280;27783;42.782;23.274;2022-09-17T09:24:35;94591.44;;;24.88
42119;BMP280;27783;42.782;23.274;2022-09-17T09:30:13;94593.91;;;24.54
42119;BMP280;27783;42.782;23.274;2022-09-17T09:33:12;94613.50;;;24.33
42119;BMP280;27783;42.782;23.274;2022-09-17T09:35:41;94610.53;;;24.20
42119;BMP280;27783;42.782;23.274;2022-09-17T09:38:15;94613.47;;;24.06
42119;BMP280;27783;42.782;23.274;2022-09-17T09:40:54;94615.41;;;24.00
42119;BMP280;27783;42.782;23.274;2022-09-17T09:49:10;94664.50;;;23.74
42119;BMP280;27783;42.782;23.274;2022-09-17T09:54:51;94663.44;;;23.55
42119;BMP280;27783;42.782;23.274;2022-09-17T09:57:31;94643.34;;;23.46
42119;BMP280;27783;42.782;23.274;2022-09-17T10:00:30;94624.75;;;23.37
42119;BMP280;27783;42.782;23.274;2022-09-17T10:03:20;94610.28;;;23.29
42119;BMP280;27783;42.782;23.274;2022-09-17T10:05:55;94602.44;;;23.26
42119;BMP280;27783;42.782;23.274;2022-09-17T10:08:24;94575.31;;;23.24
42119;BMP280;27783;42.782;23.274;2022-09-17T10:11:02;94546.41;;;23.19
42119;BMP280;27783;42.782;23.274;2022-09-17T10:13:34;94500.19;;;23.15
42119;BMP280;27783;42.782;23.274;2022-09-17T10:16:21;94512.41;;;23.11
42119;BMP280;27783;42.782;23.274;2022-09-17T10:19:18;94496.97;;;23.06
42119;BMP280;27783;42.782;23.274;2022-09-17T10:21:50;94510.91;;;23.05
42119;BMP280;27783;42.782;23.274;2022-09-17T10:24:29;94508.47;;;23.01
42119;BMP280;27783;42.782;23.274;2022-09-17T10:27:22;94495.72;;;23.02
42119;BMP280;27783;42.782;23.274;2022-09-17T10:32:32;94489.38;;;22.99
42119;BMP280;27783;42.782;23.274;2022-09-17T10:35:24;94519.91;;;23.02
42119;BMP280;27783;42.782;23.274;2022-09-17T10:37:52;94527.28;;;23.01
42119;BMP280;27783;42.782;23.274;2022-09-17T10:43:16;94537.59;;;23.19
42119;BMP280;27783;42.782;23.274;2022-09-17T10:45:44;94523.00;;;23.30
42119;BMP280;27783;42.782;23.274;2022-09-17T10:48:18;94528.38;;;23.41
42119;BMP280;27783;42.782;23.274;2022-09-17T10:50:52;94532.59;;;23.53
42119;BMP280;27783;42.782;23.274;2022-09-17T10:53:19;94535.53;;;23.65
42119;BMP280;27783;42.782;23.274;2022-09-17T10:56:05;94546.06;;;23.74
42119;BMP280;27783;42.782;23.274;2022-09-17T11:03:58;94532.44;;;24.04
42119;BMP280;27783;42.782;23.274;2022-09-17T11:09:04;94538.81;;;24.23
42119;BMP280;27783;42.782;23.274;2022-09-17T11:11:34;94550.06;;;24.26
42119;BMP280;27783;42.782;23.274;2022-09-17T11:19:44;94534.38;;;24.41
42119;BMP280;27783;42.782;23.274;2022-09-17T11:24:57;94539.53;;;24.55
42119;BMP280;27783;42.782;23.274;2022-09-17T11:35:12;94546.13;;;24.59
42119;BMP280;27783;42.782;23.274;2022-09-17T11:37:49;94538.56;;;24.58
42119;BMP280;27783;42.782;23.274;2022-09-17T11:43:32;94543.69;;;24.40
42119;BMP280;27783;42.782;23.274;2022-09-17T11:46:41;94541.00;;;24.40
42119;BMP280;27783;42.782;23.274;2022-09-17T11:51:44;94500.63;;;24.29
42119;BMP280;27783;42.782;23.274;2022-09-17T12:00:15;94495.00;;;24.22
42119;BMP280;27783;42.782;23.274;2022-09-17T12:05:54;94492.03;;;24.15
42119;BMP280;27783;42.782;23.274;2022-09-17T12:08:28;94498.66;;;24.14
42119;BMP280;27783;42.782;23.274;2022-09-17T12:13:42;94493.28;;;24.08
42119;BMP280;27783;42.782;23.274;2022-09-17T12:18:49;94478.09;;;24.00
42119;BMP280;27783;42.782;23.274;2022-09-17T12:21:21;94481.28;;;23.88
42119;BMP280;27783;42.782;23.274;2022-09-17T12:24:02;94480.03;;;23.84
42119;BMP280;27783;42.782;23.274;2022-09-17T12:27:17;94477.34;;;23.84
42119;BMP280;27783;42.782;23.274;2022-09-17T12:29:39;94476.34;;;23.65
42119;BMP280;27783;42.782;23.274;2022-09-17T12:46:14;94466.75;;;23.32
42119;BMP280;27783;42.782;23.274;2022-09-17T12:48:22;94471.16;;;23.30
42119;BMP280;27783;42.782;23.274;2022-09-17T12:51:13;94459.19;;;23.25
42119;BMP280;27783;42.782;23.274;2022-09-17T12:54:48;94457.69;;;23.24
42119;BMP280;27783;42.782;23.274;2022-09-17T12:57:14;94452.78;;;23.18
42119;BMP280;27783;42.782;23.274;2022-09-17T13:00:04;94451.78;;;23.15
42119;BMP280;27783;42.782;23.274;2022-09-17T13:13:48;94419.03;;;23.01
42119;BMP280;27783;42.782;23.274;2022-09-17T13:16:21;94415.31;;;22.98
42119;BMP280;27783;42.782;23.274;2022-09-17T13:18:51;94420.97;;;23.00
42119;BMP280;27783;42.782;23.274;2022-09-17T13:23:49;94412.16;;;22.94
42119;BMP280;27783;42.782;23.274;2022-09-17T13:26:17;94425.84;;;22.96
42119;BMP280;27783;42.782;23.274;2022-09-17T13:28:46;94421.44;;;22.93
42119;BMP280;27783;42.782;23.274;2022-09-17T13:31:12;94418.25;;;22.89
42119;BMP280;27783;42.782;23.274;2022-09-17T13:36:37;94400.16;;;22.85
42119;BMP280;27783;42.782;23.274;2022-09-17T13:39:06;94395.75;;;22.82
42119;BMP280;27783;42.782;23.274;2022-09-17T13:41:32;94384.50;;;22.78
42119;BMP280;27783;42.782;23.274;2022-09-17T13:44:02;94385.47;;;22.75
42119;BMP280;27783;42.782;23.274;2022-09-17T13:46:29;94373.00;;;22.72
42119;BMP280;27783;42.782;23.274;2022-09-17T13:49:00;94365.16;;;22.69
42119;BMP280;27783;42.782;23.274;2022-09-17T13:53:59;94334.88;;;22.63
42119;BMP280;27783;42.782;23.274;2022-09-17T13:56:38;94317.28;;;22.62
42119;BMP280;27783;42.782;23.274;2022-09-17T13:59:17;94309.00;;;22.60
42119;BMP280;27783;42.782;23.274;2022-09-17T14:15:36;94332.34;;;22.49
42119;BMP280;27783;42.782;23.274;2022-09-17T14:21:11;94341.66;;;22.48
42119;BMP280;27783;42.782;23.274;2022-09-17T14:23:47;94330.66;;;22.46
42119;BMP280;27783;42.782;23.274;2022-09-17T14:35:40;94303.53;;;22.38
42119;BMP280;27783;42.782;23.274;2022-09-17T14:48:48;94265.91;;;22.28
42119;BMP280;27783;42.782;23.274;2022-09-17T14:51:21;94266.88;;;22.25
42119;BMP280;27783;42.782;23.274;2022-09-17T14:54:05;94283.47;;;22.23
42119;BMP280;27783;42.782;23.274;2022-09-17T14:56:32;94258.34;;;22.21
42119;BMP280;27783;42.782;23.274;2022-09-17T14:59:00;94244.66;;;22.19
42119;BMP280;27783;42.782;23.274;2022-09-17T15:01:27;94233.66;;;22.17
42119;BMP280;27783;42.782;23.274;2022-09-17T15:04:23;94241.47;;;22.15
42119;BMP280;27783;42.782;23.274;2022-09-17T15:06:48;94250.00;;;22.14
42119;BMP280;27783;42.782;23.274;2022-09-17T15:09:22;94236.34;;;22.12
42119;BMP280;27783;42.782;23.274;2022-09-17T15:11:48;94251.72;;;22.11
42119;BMP280;27783;42.782;23.274;2022-09-17T15:14:20;94242.69;;;22.09
42119;BMP280;27783;42.782;23.274;2022-09-17T15:16:50;94248.06;;;22.09
42119;BMP280;27783;42.782;23.274;2022-09-17T15:19:26;94243.63;;;22.06
42119;BMP280;27783;42.782;23.274;2022-09-17T15:21:56;94224.13;;;22.05
42119;BMP280;27783;42.782;23.274;2022-09-17T15:26:56;94208.50;;;22.04
42119;BMP280;27783;42.782;23.274;2022-09-17T15:29:27;94209.72;;;22.03
42119;BMP280;27783;42.782;23.274;2022-09-17T15:31:54;94232.41;;;22.02
42119;BMP280;27783;42.782;23.274;2022-09-17T15:34:21;94231.69;;;22.02
42119;BMP280;27783;42.782;23.274;2022-09-17T15:37:17;94223.63;;;22.07
42119;BMP280;27783;42.782;23.274;2022-09-17T15:39:47;94225.34;;;22.04
42119;BMP280;27783;42.782;23.274;2022-09-17T15:42:22;94225.81;;;22.03
42119;BMP280;27783;42.782;23.274;2022-09-17T15:44:50;94237.78;;;22.02
42119;BMP280;27783;42.782;23.274;2022-09-17T15:48:00;94247.78;;;22.02
42119;BMP280;27783;42.782;23.274;2022-09-17T15:50:31;94238.00;;;21.99
42119;BMP280;27783;42.782;23.274;2022-09-17T15:56:07;94250.44;;;21.96
42119;BMP280;27783;42.782;23.274;2022-09-17T16:08:53;94220.41;;;21.87
42119;BMP280;27783;42.782;23.274;2022-09-17T16:11:21;94219.66;;;21.87
42119;BMP280;27783;42.782;23.274;2022-09-17T16:13:48;94208.69;;;21.85
42119;BMP280;27783;42.782;23.274;2022-09-17T16:16:16;94224.53;;;21.83
42119;BMP280;27783;42.782;23.274;2022-09-17T16:18:42;94220.38;;;21.82
42119;BMP280;27783;42.782;23.274;2022-09-17T16:21:10;94199.13;;;21.78
42119;BMP280;27783;42.782;23.274;2022-09-17T16:23:36;94191.31;;;21.75
42119;BMP280;27783;42.782;23.274;2022-09-17T16:26:03;94181.03;;;21.68
42119;BMP280;27783;42.782;23.274;2022-09-17T16:28:29;94189.78;;;21.63
42119;BMP280;27783;42.782;23.274;2022-09-17T16:30:55;94168.84;;;21.67
42119;BMP280;27783;42.782;23.274;2022-09-17T16:33:21;94144.72;;;21.67
42119;BMP280;27783;42.782;23.274;2022-09-17T16:35:46;94142.75;;;21.68
42119;BMP280;27783;42.782;23.274;2022-09-17T16:38:12;94139.59;;;21.69
42119;BMP280;27783;42.782;23.274;2022-09-17T16:40:42;94139.84;;;21.66
42119;BMP280;27783;42.782;23.274;2022-09-17T16:43:08;94133.97;;;21.67
42119;BMP280;27783;42.782;23.274;2022-09-17T16:45:34;94130.56;;;21.67
42119;BMP280;27783;42.782;23.274;2022-09-17T16:47:59;94127.41;;;21.68
42119;BMP280;27783;42.782;23.274;2022-09-17T16:50:25;94131.81;;;21.71
42119;BMP280;27783;42.782;23.274;2022-09-17T16:52:51;94136.66;;;21.67
42119;BMP280;27783;42.782;23.274;2022-09-17T16:55:18;94152.75;;;21.67
42119;BMP280;27783;42.782;23.274;2022-09-17T16:57:45;94141.06;;;21.70
42119;BMP280;27783;42.782;23.274;2022-09-17T17:00:14;94144.97;;;21.69
42119;BMP280;27783;42.782;23.274;2022-09-17T17:02:47;94140.31;;;21.70
42119;BMP280;27783;42.782;23.274;2022-09-17T17:05:15;94136.94;;;21.69
42119;BMP280;27783;42.782;23.274;2022-09-17T17:07:40;94150.06;;;21.67
42119;BMP280;27783;42.782;23.274;2022-09-17T17:10:06;94150.34;;;21.69
42119;BMP280;27783;42.782;23.274;2022-09-17T17:12:33;94156.66;;;21.66
42119;BMP280;27783;42.782;23.274;2022-09-17T17:14:59;94160.78;;;21.67
42119;BMP280;27783;42.782;23.274;2022-09-17T17:17:26;94178.13;;;21.66
42119;BMP280;27783;42.782;23.274;2022-09-17T17:19:52;94174.19;;;21.67
42119;BMP280;27783;42.782;23.274;2022-09-17T17:22:17;94181.28;;;21.65
42119;BMP280;27783;42.782;23.274;2022-09-17T17:24:42;94184.69;;;21.65
42119;BMP280;27783;42.782;23.274;2022-09-17T17:27:08;94180.53;;;21.64
42119;BMP280;27783;42.782;23.274;2022-09-17T17:29:34;94176.38;;;21.63
42119;BMP280;27783;42.782;23.274;2022-09-17T17:32:01;94173.00;;;21.63
42119;BMP280;27783;42.782;23.274;2022-09-17T17:34:26;94172.25;;;21.62
42119;BMP280;27783;42.782;23.274;2022-09-17T17:36:52;94190.75;;;21.60
42119;BMP280;27783;42.782;23.274;2022-09-17T17:39:17;94202.72;;;21.65
42119;BMP280;27783;42.782;23.274;2022-09-17T17:41:42;94218.59;;;21.63